10/21 00:00 更新

3,000ftに雲が少し
雲が散在

地上風: 360°10kt

上空風
13,000ft: 未計測
10,000ft: 290° 30kt
 7,000ft: 320° 32kt
 3,000ft: 未計測

地上: 10℃
上空: -13.6℃

日没: 16:58

RJTJ 201500Z 36010KT 9999 FEW030 SCT/// 10/04 Q1013 RMK 1CU030 A2993=